Solberg-Hunterdon (N51)
Readington, NJ
Field Elevation: 195
Lat: 40°34.98N  Long: 74°44.19W
CTAF/Unicom Freq: 122.8000
   
     For Weather-by-Phone, call 908 534 4979
Weather Advisories
2020-02-19   17:15 Z
Altimeter 30.23" Hg
Wind 310° @ 14 KT
Gusts 21 KT
Visibility 10 SM
Ceiling CLR
Temperature 8° C (46° F)
Dewpoint -8° C (18° F)
Relative Humidity 33%
Density Altitude --
Condensation Altitude 8,000 feet
Wind Chill: 4° C (39° F)
Wind and Runways
Indicated Runway = 31
Headwind = 14 kt
Crosswind = 0 kt
History
 
 
 
More Info
All DigiWx sites map
NOAA Forecast
 
Airport IQ 5010
(4N1) Greenwood Lake, NJ
(N40) Sky Manor, NJ
 
about DigiWx
 
FAA Disclaimer: The data displayed is for advisory purposes only and is not to be used for flight planning or operations. For official data, please call 908 534 4979 to hear the current automated AWOS voice message.
  METAR N51 191715Z AUTO 31014G21KT 10 SM CLR 08/M08 A3023